Latest Weather Observations for Hartz Mountains

IDT60801

Issued at 7:05 am EST Monday 21 April 2014 (issued every 30 minutes, with the page automatically refreshed every 10 minutes)

About weather observations | Map of weather stations | Latest weather observations for TAS | Other Formats
Station Details ID: 094191 Name: HARTZ MOUNTAIN (KEOGHS PIMPLE) Lat: -43.20 Lon: 146.77 Height: 831.0 m
Data from the previous 72 hours. | See also: Recent months at Hartz Mountains
Date/Time
EST
Temp
°C
App
Temp
°C
Dew
Point
Rel
Hum
%
Delta-T
°C
Wind Press
QNH
hPa
Press
MSL
hPa
Rain
since 9 am
mm
Dir
 
Spd
km/h
Gust
km/h
Spd
kts
Gust
kts
21/07:00am 1.5 -2.9 0.5 93 0.4 W 13 20 7 11 - - 2.0
21/06:30am 1.3 -3.9 0.4 94 0.4 W 17 28 9 15 - - 2.0
21/06:00am 1.1 -4.1 0.4 95 0.3 W 17 22 9 12 - - 2.0
21/05:30am 1.2 -4.5 0.6 96 0.2 W 20 28 11 15 - - 2.0
21/05:00am 1.4 -3.7 0.7 95 0.3 W 17 22 9 12 - - 2.0
21/04:30am 1.6 -4.1 0.3 91 0.5 W 20 32 11 17 - - 1.8
21/04:00am 1.7 -3.8 0.5 92 0.5 W 19 30 10 16 - - 1.8
21/03:30am 1.5 -4.1 0.0 90 0.6 WSW 19 24 10 13 - - 1.8
21/03:00am 1.4 -5.2 -0.1 90 0.6 W 24 35 13 19 - - 1.8
21/02:30am 1.2 -5.7 -0.1 91 0.5 W 26 32 14 17 - - 1.8
21/02:00am 1.1 -4.5 0.2 94 0.3 WNW 19 28 10 15 - - 1.8
21/01:30am 1.5 -4.1 0.9 96 0.2 WNW 20 26 11 14 - - 1.8
21/01:00am 1.3 -3.8 0.7 96 0.2 WNW 17 20 9 11 - - 1.8
21/12:30am 1.4 -3.3 0.8 96 0.2 WNW 15 20 8 11 - - 1.8
21/12:00am 1.5 -2.5 0.6 94 0.4 NW 11 19 6 10 - - 1.8
 
Date/Time
EST
Temp
°C
App
Temp
°C
Dew
Point
Rel
Hum
%
Delta-T
°C
Wind Press
QNH
hPa
Press
MSL
hPa
Rain
since 9 am
mm
Dir
 
Spd
km/h
Gust
km/h
Spd
kts
Gust
kts
20/11:30pm 1.5 -1.9 -0.3 88 0.7 WNW 7 17 4 9 - - 1.8
20/11:00pm 1.8 -2.4 -0.6 84 0.9 W 11 20 6 11 - - 1.8
20/10:30pm 1.9 -5.1 -0.2 86 0.8 W 26 35 14 19 - - 1.8
20/10:00pm 2.1 -4.8 0.2 87 0.7 W 26 33 14 18 - - 1.8
20/09:30pm 2.3 -6.7 -0.1 84 0.9 W 37 57 20 31 - - 1.8
20/09:04pm 2.1 -5.6 0.0 86 0.8 W 30 48 16 26 - - 1.8
20/09:00pm 2.1 -5.2 0.2 87 0.7 W 28 41 15 22 - - 1.8
20/08:31pm 2.5 -4.7 0.6 87 0.8 W 28 46 15 25 - - 1.8
20/08:30pm 2.5 -4.4 0.4 86 0.8 W 26 46 14 25 - - 1.8
20/08:12pm 2.5 -5.7 0.4 86 0.8 W 33 52 18 28 - - 1.8
20/08:00pm 2.4 -5.6 0.5 87 0.8 W 32 46 17 25 - - 1.8
20/07:44pm 2.7 -5.7 1.4 91 0.5 W 35 54 19 29 - - 1.8
20/07:30pm 2.7 -6.1 1.2 90 0.6 WSW 37 50 20 27 - - 1.8
20/07:00pm 3.0 -4.9 2.3 95 0.3 WSW 33 48 18 26 - - 1.8
20/06:33pm 3.1 -4.8 2.2 94 0.4 W 33 54 18 29 - - 1.8
20/06:30pm 3.3 -4.6 2.4 94 0.4 W 33 48 18 26 - - 1.8
20/06:14pm 3.3 -4.5 2.6 95 0.3 WSW 33 52 18 28 - - 1.8
20/06:00pm 3.5 -4.8 2.3 92 0.5 WSW 35 48 19 26 - - 1.8
20/05:32pm 3.8 -6.0 2.5 91 0.5 WSW 43 70 23 38 - - 1.8
20/05:30pm 3.9 -5.4 2.7 92 0.5 WSW 41 54 22 29 - - 1.8
20/05:00pm 4.3 -2.7 4.0 98 0.1 W 30 52 16 28 - - 1.8
20/04:39pm 4.7 -3.9 4.4 98 0.1 WSW 39 59 21 32 - - 1.8
20/04:30pm 5.0 -3.6 4.7 98 0.1 W 39 52 21 28 - - 1.8
20/04:02pm 5.5 -2.2 5.2 98 0.1 WSW 35 54 19 29 - - 1.8
20/04:00pm 5.5 -1.9 5.2 98 0.1 WSW 33 48 18 26 - - 1.8
20/03:30pm 6.1 -0.9 5.8 98 0.1 W 32 50 17 27 - - 1.8
20/03:00pm 6.5 -0.6 6.2 98 0.1 W 33 56 18 30 - - 1.6
20/02:54pm 6.5 0.3 6.2 98 0.1 W 28 56 15 30 - - 1.6
20/02:30pm 6.9 1.9 6.6 98 0.1 W 22 41 12 22 - - 1.4
20/02:00pm 6.9 -0.5 6.6 98 0.1 WNW 35 61 19 33 - - 1.4
20/01:30pm 6.9 -0.9 6.6 98 0.1 WNW 37 59 20 32 - - 0.8
20/01:09pm 7.0 0.0 6.7 98 0.1 W 33 52 18 28 - - 0.6
20/01:00pm 7.0 1.3 6.7 98 0.1 NW 26 44 14 24 - - 0.6
20/12:39pm 6.8 0.7 6.4 97 0.2 WNW 28 46 15 25 - - 0.4
20/12:30pm 6.9 1.9 6.5 97 0.2 WNW 22 43 12 23 - - 0.4
20/12:00pm 6.7 0.1 6.1 96 0.3 WNW 30 50 16 27 - - 0.0
20/11:43am 6.4 0.1 5.8 96 0.3 W 28 50 15 27 - - 0.0
20/11:30am 6.4 0.9 5.7 95 0.3 W 24 43 13 23 - - 0.0
20/11:00am 6.1 -1.9 5.5 96 0.3 W 37 70 20 38 - - 0.0
20/10:31am 5.9 -3.0 5.0 94 0.4 W 41 67 22 36 - - 0.0
20/10:30am 5.9 -2.6 5.0 94 0.4 W 39 56 21 30 - - 0.0
20/10:23am 6.0 -1.4 5.1 94 0.4 W 33 70 18 38 - - 0.0
20/10:22am 6.0 -1.8 5.0 93 0.5 W 35 70 19 38 - - 0.0
20/10:00am 6.4 -5.4 4.6 88 0.8 W 56 78 30 42 - - 0.0
20/09:30am 5.7 -5.3 5.1 96 0.3 W 52 72 28 39 - - 0.0
20/09:02am 5.4 -5.7 4.7 95 0.3 W 52 74 28 40 - - 0.0
20/09:00am 5.3 -5.4 4.7 96 0.3 W 50 67 27 36 - - 0.6
20/08:30am 5.1 -6.0 4.4 95 0.3 W 52 72 28 39 - - 0.6
20/08:00am 4.8 -4.9 4.1 95 0.3 W 44 65 24 35 - - 0.6
20/07:32am 4.6 -4.5 3.9 95 0.3 W 41 59 22 32 - - 0.6
20/07:30am 4.6 -4.9 3.9 95 0.3 W 43 59 23 32 - - 0.6
20/07:01am 4.3 -4.5 3.4 94 0.4 W 39 57 21 31 - - 0.6
20/07:00am 4.3 -4.9 3.4 94 0.4 W 41 57 22 31 - - 0.6
20/06:30am 4.1 -4.8 3.2 94 0.4 W 39 59 21 32 - - 0.6
20/06:00am 3.9 -5.8 3.0 94 0.4 W 43 63 23 34 - - 0.6
20/05:30am 3.7 -5.6 2.8 94 0.4 W 41 61 22 33 - - 0.6
20/05:00am 3.6 -4.6 2.7 94 0.4 W 35 57 19 31 - - 0.6
20/04:30am 3.4 -5.2 2.4 93 0.4 W 37 59 20 32 - - 0.6
20/04:00am 3.3 -5.3 2.4 94 0.4 W 37 56 20 30 - - 0.6
20/03:30am 3.2 -4.5 2.2 93 0.4 W 32 50 17 27 - - 0.6
20/03:15am 3.1 -4.2 2.2 94 0.4 W 30 48 16 26 - - 0.6
20/03:00am 3.2 -4.5 2.3 94 0.4 W 32 44 17 24 - - 0.6
20/02:49am 3.1 -4.3 2.1 93 0.4 W 30 50 16 27 - - 0.6
20/02:30am 3.1 -3.5 1.9 92 0.5 W 26 37 14 20 - - 0.6
20/02:04am 3.1 -6.4 1.6 90 0.6 W 41 59 22 32 - - 0.6
20/02:00am 3.1 -6.8 1.6 90 0.6 W 43 59 23 32 - - 0.6
20/01:46am 3.1 -6.8 1.8 91 0.5 W 43 61 23 33 - - 0.6
20/01:30am 2.9 -6.2 1.9 93 0.4 W 39 56 21 30 - - 0.6
20/01:07am 2.7 -6.4 2.0 95 0.3 W 39 57 21 31 - - 0.6
20/01:00am 2.7 -6.0 2.1 96 0.2 W 37 54 20 29 - - 0.6
20/12:30am 2.7 -7.2 1.8 94 0.4 W 43 61 23 33 - - 0.6
20/12:00am 2.8 -7.7 1.5 91 0.5 W 46 59 25 32 - - 0.6
 
Date/Time
EST
Temp
°C
App
Temp
°C
Dew
Point
Rel
Hum
%
Delta-T
°C
Wind Press
QNH
hPa
Press
MSL
hPa
Rain
since 9 am
mm
Dir
 
Spd
km/h
Gust
km/h
Spd
kts
Gust
kts
19/11:31pm 2.7 -7.4 1.4 91 0.5 W 44 76 24 41 - - 0.6
19/11:30pm 2.7 -7.2 1.4 91 0.5 W 43 57 23 31 - - 0.6
19/11:15pm 2.7 -6.9 1.4 91 0.5 W 41 61 22 33 - - 0.6
19/11:00pm 2.6 -7.4 1.1 90 0.6 W 43 57 23 31 - - 0.6
19/10:30pm 2.6 -6.2 1.3 91 0.5 W 37 57 20 31 - - 0.6
19/10:00pm 2.7 -5.7 1.5 92 0.5 W 35 50 19 27 - - 0.6
19/09:30pm 2.4 -6.0 1.4 93 0.4 W 35 48 19 26 - - 0.6
19/09:03pm 2.3 -5.5 1.6 95 0.3 WNW 32 50 17 27 - - 0.6
19/09:00pm 2.3 -5.1 1.6 95 0.3 WNW 30 46 16 25 - - 0.6
19/08:30pm 2.4 -5.0 2.1 98 0.1 WNW 30 48 16 26 - - 0.6
19/08:29pm 2.5 -4.8 2.2 98 0.1 WNW 30 48 16 26 - - 0.6
19/08:00pm 2.9 -3.2 2.8 99 0.0 WNW 24 43 13 23 - - 0.6
19/07:30pm 3.1 -2.6 3.0 99 0.0 WNW 22 35 12 19 - - 0.6
19/07:00pm 3.1 -0.9 2.8 98 0.1 W 13 19 7 10 - - 0.4
19/06:30pm 3.1 -2.3 2.7 97 0.2 WNW 20 32 11 17 - - 0.2
19/06:00pm 3.2 -3.3 2.6 96 0.3 WNW 26 46 14 25 - - 0.2
19/05:30pm 3.3 -1.9 2.4 94 0.4 WNW 19 32 10 17 - - 0.2
19/05:00pm 3.3 -3.2 2.6 95 0.3 WNW 26 41 14 22 - - 0.2
19/04:30pm 3.7 -2.7 3.1 96 0.3 W 26 35 14 19 - - 0.2
19/04:00pm 4.5 1.1 3.8 95 0.3 WNW 11 30 6 16 - - 0.0
19/03:30pm 4.3 -1.0 3.1 92 0.5 W 20 32 11 17 - - 0.0
19/03:00pm 4.0 -2.5 2.8 92 0.5 WSW 26 39 14 21 - - 0.0
19/02:30pm 4.5 -1.8 3.5 93 0.4 WSW 26 37 14 20 - - 0.0
19/02:00pm 5.1 -2.5 3.9 92 0.5 W 33 46 18 25 - - 0.0
19/01:30pm 4.6 -2.6 3.1 90 0.6 WSW 30 39 16 21 - - 0.0
19/01:00pm 6.0 -0.2 4.5 90 0.7 W 26 43 14 23 - - 0.0
19/12:30pm 4.5 -2.9 3.8 95 0.3 W 32 43 17 23 - - 0.0
19/12:00pm 4.6 -2.8 4.2 97 0.2 WSW 32 46 17 25 - - 0.0
19/11:30am 4.4 -2.3 3.5 94 0.4 W 28 39 15 21 - - 0.0
19/11:00am 4.6 -2.5 3.4 92 0.5 W 30 39 16 21 - - 0.0
19/10:30am 4.7 -1.9 4.0 95 0.3 W 28 39 15 21 - - 0.0
19/10:00am 3.4 -3.0 3.1 98 0.1 WSW 26 35 14 19 - - 0.0
19/09:30am 3.4 -2.3 2.8 96 0.3 WSW 22 32 12 17 - - 0.0
19/09:09am 3.3 -4.3 2.6 95 0.3 WSW 32 50 17 27 - - 0.0
19/09:00am 2.8 -5.1 2.4 97 0.2 WSW 33 50 18 27 - - 5.2
19/08:30am 2.7 -3.8 2.6 99 0.0 WSW 26 41 14 22 - - 5.2
19/08:00am 2.4 -4.2 2.1 98 0.1 WSW 26 43 14 23 - - 5.2
19/07:30am 2.2 -6.1 2.1 99 0.0 SW 35 48 19 26 - - 5.2
19/07:00am 2.0 -5.9 2.0 100 0.0 WSW 33 48 18 26 - - 5.2
19/06:30am 2.2 -5.5 2.2 100 0.0 SW 32 50 17 27 - - 5.0
19/06:07am 2.3 -5.6 2.3 100 0.0 WSW 33 54 18 29 - - 5.0
19/06:00am 2.4 -5.3 2.4 100 0.0 WSW 32 46 17 25 - - 4.8
19/05:43am 2.5 -5.7 2.5 100 0.0 WSW 35 54 19 29 - - 4.8
19/05:30am 2.5 -5.7 2.5 100 0.0 WSW 35 52 19 28 - - 4.8
19/05:25am 2.5 -5.4 2.5 100 0.0 WSW 33 52 18 28 - - 4.8
19/05:00am 2.5 -5.4 2.5 100 0.0 WSW 33 44 18 24 - - 4.4
19/04:30am 2.4 -7.6 2.4 100 0.0 SW 44 65 24 35 - - 4.4
19/04:00am 2.4 -6.2 2.4 100 0.0 WSW 37 56 20 30 - - 4.4
19/03:30am 2.5 -5.4 2.5 100 0.0 WSW 33 52 18 28 - - 4.2
19/03:00am 2.5 -6.1 2.4 99 0.0 W 37 56 20 30 - - 4.2
19/02:30am 2.7 -6.3 2.6 99 0.0 WSW 39 57 21 31 - - 3.8
19/02:09am 2.7 -6.3 2.6 99 0.0 WSW 39 57 21 31 - - 3.6
19/02:00am 2.7 -7.0 2.6 99 0.0 WSW 43 57 23 31 - - 3.6
19/01:32am 2.6 -5.6 2.5 99 0.0 WSW 35 57 19 31 - - 3.6
19/01:30am 2.6 -5.3 2.5 99 0.0 WSW 33 46 18 25 - - 3.6
19/01:02am 2.8 -6.5 2.7 99 0.0 WSW 41 59 22 32 - - 3.6
19/01:00am 2.7 -7.0 2.6 99 0.0 WSW 43 59 23 32 - - 3.6
19/12:30am 2.8 -7.0 2.5 98 0.1 WSW 43 63 23 34 - - 3.4
19/12:05am 2.8 -5.4 2.5 98 0.1 WSW 35 54 19 29 - - 3.4
19/12:00am 2.8 -6.2 2.5 98 0.1 WSW 39 54 21 29 - - 3.4
 
Date/Time
EST
Temp
°C
App
Temp
°C
Dew
Point
Rel
Hum
%
Delta-T
°C
Wind Press
QNH
hPa
Press
MSL
hPa
Rain
since 9 am
mm
Dir
 
Spd
km/h
Gust
km/h
Spd
kts
Gust
kts
18/11:34pm 2.7 -6.7 2.4 98 0.1 WSW 41 65 22 35 - - 3.4
18/11:30pm 2.7 -7.1 2.4 98 0.1 WSW 43 57 23 31 - - 3.4
18/11:01pm 2.7 -8.1 2.1 96 0.2 WSW 48 67 26 36 - - 3.2
18/11:00pm 2.7 -8.5 2.1 96 0.2 WSW 50 67 27 36 - - 3.2
18/10:46pm 2.6 -6.8 2.3 98 0.1 WSW 41 67 22 36 - - 3.2
18/10:30pm 2.8 -7.1 2.5 98 0.1 WSW 44 61 24 33 - - 3.2
18/10:03pm 2.9 -7.0 2.6 98 0.1 WSW 44 63 24 34 - - 3.2
18/10:00pm 2.9 -7.8 2.6 98 0.1 WSW 48 63 26 34 - - 3.2
18/09:30pm 3.1 -7.2 2.8 98 0.1 W 46 70 25 38 - - 3.0
18/09:00pm 3.4 -6.9 2.8 96 0.3 WSW 46 67 25 36 - - 3.0
18/08:58pm 3.4 -6.5 2.8 96 0.3 WSW 44 67 24 36 - - 3.0
18/08:30pm 3.4 -6.8 3.0 97 0.2 WSW 46 59 25 32 - - 3.0
18/08:00pm 3.5 -6.3 3.2 98 0.1 WSW 44 67 24 36 - - 3.0
18/07:41pm 3.6 -6.2 3.3 98 0.1 WSW 44 63 24 34 - - 2.8
18/07:30pm 3.6 -6.6 3.3 98 0.1 WSW 46 61 25 33 - - 2.8
18/07:00pm 3.9 -5.3 3.6 98 0.1 WSW 41 52 22 28 - - 2.8
18/06:30pm 3.8 -7.1 3.5 98 0.1 WSW 50 65 27 35 - - 2.6
18/06:07pm 3.8 -6.0 3.5 98 0.1 WSW 44 65 24 35 - - 2.6
18/06:00pm 3.8 -5.8 3.5 98 0.1 WSW 43 56 23 30 - - 2.6
18/05:30pm 4.0 -5.2 3.3 95 0.3 W 41 57 22 31 - - 2.6
18/05:00pm 4.4 -4.4 3.8 96 0.3 WSW 39 52 21 28 - - 2.6
18/04:34pm 4.3 -3.8 3.4 94 0.4 WSW 35 54 19 29 - - 2.6
18/04:30pm 4.2 -4.3 3.3 94 0.4 WSW 37 52 20 28 - - 2.6
18/04:14pm 4.4 -5.4 3.2 92 0.5 WSW 44 63 24 34 - - 2.6
18/04:00pm 4.5 -6.0 3.5 93 0.4 WSW 48 65 26 35 - - 2.6
18/03:38pm 4.2 -5.5 3.8 97 0.2 WSW 44 63 24 34 - - 2.6
18/03:30pm 4.3 -5.8 3.9 97 0.2 WSW 46 63 25 34 - - 2.6
18/03:04pm 4.9 -4.5 4.3 96 0.3 WSW 43 65 23 35 - - 2.4
18/03:00pm 4.9 -4.1 4.3 96 0.3 WSW 41 54 22 29 - - 2.4
18/02:30pm 6.0 -1.5 4.3 89 0.8 W 33 56 18 30 - - 2.4
18/02:00pm 5.8 -3.5 4.8 93 0.5 WSW 43 63 23 34 - - 2.4
18/01:56pm 5.6 -3.0 4.7 94 0.4 WSW 39 63 21 34 - - 2.4
18/01:30pm 5.3 -3.0 4.0 91 0.6 WSW 37 52 20 28 - - 2.2
18/01:00pm 5.4 -4.7 3.7 89 0.8 WSW 46 67 25 36 - - 2.2
18/12:32pm 4.9 -6.6 4.2 95 0.3 WSW 54 72 29 39 - - 2.2
18/12:30pm 4.8 -6.8 4.1 95 0.3 WSW 54 70 29 38 - - 2.2
18/12:00pm 4.8 -5.6 4.1 95 0.3 W 48 70 26 38 - - 2.2
18/11:30am 4.9 -6.3 3.9 93 0.4 W 52 70 28 38 - - 2.2
18/11:00am 5.1 -5.2 4.5 96 0.3 WSW 48 69 26 37 - - 2.2
18/10:41am 5.0 -6.5 4.6 97 0.2 W 54 72 29 39 - - 2.2
18/10:30am 5.0 -7.1 4.4 96 0.3 WSW 57 72 31 39 - - 2.2
18/10:11am 4.9 -6.2 4.3 96 0.3 W 52 72 28 39 - - 2.2
18/10:00am 5.1 -6.7 4.7 97 0.2 W 56 69 30 37 - - 2.2
18/09:30am 5.4 -5.3 4.8 96 0.3 WSW 50 72 27 39 - - 2.2
18/09:10am 6.9 -1.5 5.8 93 0.5 WSW 39 69 21 37 - - 1.6
18/09:05am 7.8 1.3 6.7 93 0.5 WNW 30 52 16 28 - - 0.8
18/09:00am 8.1 2.4 6.7 91 0.7 WNW 26 35 14 19 - - 0.4
18/08:30am 9.7 3.2 6.6 81 1.5 NW 30 41 16 22 - - 0.0
18/08:00am 9.2 4.7 6.3 82 1.4 NNW 19 28 10 15 - - 0.0
18/07:30am 8.5 4.0 6.1 85 1.2 NW 19 26 10 14 - - 0.0

Other Formats:

Comma delimited format used in spreadsheet applications
http://www.bom.gov.au/fwo/IDT60801/IDT60801.94977.axf

JavaScript Object Notation format (JSON) in row-major order
http://www.bom.gov.au/fwo/IDT60801/IDT60801.94977.json